sensor_id;sensor_type;location;lat;lon;timestamp;P1;durP1;ratioP1;P2;durP2;ratioP2
11064;SDS011;5585;52.530;7.320;2022-11-06T00:00:34;3.43;;;2.80;;
11064;SDS011;5585;52.530;7.320;2022-11-06T00:03:01;4.40;;;2.80;;
11064;SDS011;5585;52.530;7.320;2022-11-06T00:05:29;4.30;;;2.93;;
11064;SDS011;5585;52.530;7.320;2022-11-06T00:08:13;5.27;;;2.93;;
11064;SDS011;5585;52.530;7.320;2022-11-06T00:10:40;4.70;;;3.07;;
11064;SDS011;5585;52.530;7.320;2022-11-06T00:13:06;5.23;;;3.10;;
11064;SDS011;5585;52.530;7.320;2022-11-06T00:15:35;4.47;;;3.10;;
11064;SDS011;5585;52.530;7.320;2022-11-06T00:18:02;3.77;;;2.43;;
11064;SDS011;5585;52.530;7.320;2022-11-06T00:20:29;4.87;;;3.13;;
11064;SDS011;5585;52.530;7.320;2022-11-06T00:22:56;5.37;;;2.93;;
11064;SDS011;5585;52.530;7.320;2022-11-06T00:25:22;4.03;;;2.80;;
11064;SDS011;5585;52.530;7.320;2022-11-06T00:27:49;4.37;;;2.73;;
11064;SDS011;5585;52.530;7.320;2022-11-06T00:30:15;3.90;;;2.43;;
11064;SDS011;5585;52.530;7.320;2022-11-06T00:32:44;5.37;;;2.70;;
11064;SDS011;5585;52.530;7.320;2022-11-06T00:35:10;4.90;;;3.10;;
11064;SDS011;5585;52.530;7.320;2022-11-06T00:37:38;4.10;;;2.47;;
11064;SDS011;5585;52.530;7.320;2022-11-06T00:40:05;4.67;;;3.07;;
11064;SDS011;5585;52.530;7.320;2022-11-06T00:42:32;2.73;;;2.40;;
11064;SDS011;5585;52.530;7.320;2022-11-06T00:44:58;3.53;;;2.67;;
11064;SDS011;5585;52.530;7.320;2022-11-06T00:47:25;4.27;;;2.30;;
11064;SDS011;5585;52.530;7.320;2022-11-06T00:49:51;2.87;;;2.40;;
11064;SDS011;5585;52.530;7.320;2022-11-06T00:52:17;6.00;;;2.60;;
11064;SDS011;5585;52.530;7.320;2022-11-06T00:54:45;5.33;;;2.90;;
11064;SDS011;5585;52.530;7.320;2022-11-06T00:57:12;3.40;;;2.33;;
11064;SDS011;5585;52.530;7.320;2022-11-06T00:59:38;3.50;;;2.23;;
11064;SDS011;5585;52.530;7.320;2022-11-06T01:02:05;5.67;;;2.47;;
11064;SDS011;5585;52.530;7.320;2022-11-06T01:04:31;3.23;;;2.30;;
11064;SDS011;5585;52.530;7.320;2022-11-06T01:06:58;5.50;;;2.40;;
11064;SDS011;5585;52.530;7.320;2022-11-06T01:09:25;3.67;;;2.20;;
11064;SDS011;5585;52.530;7.320;2022-11-06T01:11:54;3.77;;;2.30;;
11064;SDS011;5585;52.530;7.320;2022-11-06T01:14:21;4.67;;;2.23;;
11064;SDS011;5585;52.530;7.320;2022-11-06T01:16:48;3.07;;;2.00;;
11064;SDS011;5585;52.530;7.320;2022-11-06T01:19:15;2.50;;;2.10;;
11064;SDS011;5585;52.530;7.320;2022-11-06T01:21:42;4.27;;;2.60;;
11064;SDS011;5585;52.530;7.320;2022-11-06T01:24:09;2.50;;;1.97;;
11064;SDS011;5585;52.530;7.320;2022-11-06T01:26:36;4.77;;;2.10;;
11064;SDS011;5585;52.530;7.320;2022-11-06T01:29:05;3.83;;;2.37;;
11064;SDS011;5585;52.530;7.320;2022-11-06T01:31:32;2.23;;;1.60;;
11064;SDS011;5585;52.530;7.320;2022-11-06T01:33:59;5.93;;;2.10;;
11064;SDS011;5585;52.530;7.320;2022-11-06T01:36:26;3.73;;;2.20;;
11064;SDS011;5585;52.530;7.320;2022-11-06T01:38:53;3.30;;;1.80;;
11064;SDS011;5585;52.530;7.320;2022-11-06T01:41:21;4.30;;;1.93;;
11064;SDS011;5585;52.530;7.320;2022-11-06T01:43:49;4.87;;;2.10;;
11064;SDS011;5585;52.530;7.320;2022-11-06T01:46:17;4.17;;;2.10;;
11064;SDS011;5585;52.530;7.320;2022-11-06T01:48:45;3.00;;;1.87;;
11064;SDS011;5585;52.530;7.320;2022-11-06T01:51:12;4.37;;;2.00;;
11064;SDS011;5585;52.530;7.320;2022-11-06T01:53:39;3.77;;;2.20;;
11064;SDS011;5585;52.530;7.320;2022-11-06T01:56:07;2.77;;;2.07;;
11064;SDS011;5585;52.530;7.320;2022-11-06T01:58:35;3.00;;;1.70;;
11064;SDS011;5585;52.530;7.320;2022-11-06T02:01:02;3.00;;;1.73;;
11064;SDS011;5585;52.530;7.320;2022-11-06T02:03:30;2.67;;;1.70;;
11064;SDS011;5585;52.530;7.320;2022-11-06T02:05:56;4.47;;;1.83;;
11064;SDS011;5585;52.530;7.320;2022-11-06T02:08:23;4.83;;;1.97;;
11064;SDS011;5585;52.530;7.320;2022-11-06T02:10:50;3.13;;;1.90;;
11064;SDS011;5585;52.530;7.320;2022-11-06T02:13:20;4.77;;;2.20;;
11064;SDS011;5585;52.530;7.320;2022-11-06T02:15:49;6.10;;;1.80;;
11064;SDS011;5585;52.530;7.320;2022-11-06T02:21:10;3.77;;;1.80;;
11064;SDS011;5585;52.530;7.320;2022-11-06T02:23:48;6.60;;;2.23;;
11064;SDS011;5585;52.530;7.320;2022-11-06T02:26:20;4.90;;;2.10;;
11064;SDS011;5585;52.530;7.320;2022-11-06T02:28:51;5.70;;;1.90;;
11064;SDS011;5585;52.530;7.320;2022-11-06T02:31:22;4.00;;;2.07;;
11064;SDS011;5585;52.530;7.320;2022-11-06T02:33:51;4.70;;;2.17;;
11064;SDS011;5585;52.530;7.320;2022-11-06T02:36:20;4.90;;;2.27;;
11064;SDS011;5585;52.530;7.320;2022-11-06T02:38:48;4.20;;;2.80;;
11064;SDS011;5585;52.530;7.320;2022-11-06T02:41:16;3.70;;;1.97;;
11064;SDS011;5585;52.530;7.320;2022-11-06T02:43:44;5.60;;;2.10;;
11064;SDS011;5585;52.530;7.320;2022-11-06T02:46:14;3.23;;;2.00;;
11064;SDS011;5585;52.530;7.320;2022-11-06T02:48:43;2.97;;;1.70;;
11064;SDS011;5585;52.530;7.320;2022-11-06T02:51:12;3.37;;;2.20;;
11064;SDS011;5585;52.530;7.320;2022-11-06T02:53:41;4.13;;;1.97;;
11064;SDS011;5585;52.530;7.320;2022-11-06T02:56:10;3.77;;;1.93;;
11064;SDS011;5585;52.530;7.320;2022-11-06T02:58:37;3.80;;;1.97;;
11064;SDS011;5585;52.530;7.320;2022-11-06T03:01:06;3.40;;;2.20;;
11064;SDS011;5585;52.530;7.320;2022-11-06T03:03:38;4.77;;;2.17;;
11064;SDS011;5585;52.530;7.320;2022-11-06T03:06:06;2.93;;;2.13;;
11064;SDS011;5585;52.530;7.320;2022-11-06T03:08:37;4.80;;;2.17;;
11064;SDS011;5585;52.530;7.320;2022-11-06T03:11:05;3.30;;;2.13;;
11064;SDS011;5585;52.530;7.320;2022-11-06T03:13:36;5.10;;;2.07;;
11064;SDS011;5585;52.530;7.320;2022-11-06T03:16:07;4.90;;;2.20;;
11064;SDS011;5585;52.530;7.320;2022-11-06T03:18:38;5.97;;;2.30;;
11064;SDS011;5585;52.530;7.320;2022-11-06T03:21:09;5.30;;;2.20;;
11064;SDS011;5585;52.530;7.320;2022-11-06T03:23:41;3.90;;;2.50;;
11064;SDS011;5585;52.530;7.320;2022-11-06T03:26:11;4.47;;;2.17;;
11064;SDS011;5585;52.530;7.320;2022-11-06T03:28:41;4.43;;;2.20;;
11064;SDS011;5585;52.530;7.320;2022-11-06T03:31:10;3.67;;;2.00;;
11064;SDS011;5585;52.530;7.320;2022-11-06T03:33:40;4.93;;;2.10;;
11064;SDS011;5585;52.530;7.320;2022-11-06T03:36:09;3.10;;;2.07;;
11064;SDS011;5585;52.530;7.320;2022-11-06T03:38:38;5.40;;;2.30;;
11064;SDS011;5585;52.530;7.320;2022-11-06T03:41:07;3.60;;;1.83;;
11064;SDS011;5585;52.530;7.320;2022-11-06T03:43:35;3.60;;;1.90;;
11064;SDS011;5585;52.530;7.320;2022-11-06T03:46:03;5.40;;;2.30;;
11064;SDS011;5585;52.530;7.320;2022-11-06T03:48:30;3.30;;;1.80;;
11064;SDS011;5585;52.530;7.320;2022-11-06T03:51:01;2.70;;;1.70;;
11064;SDS011;5585;52.530;7.320;2022-11-06T03:53:30;2.67;;;1.60;;
11064;SDS011;5585;52.530;7.320;2022-11-06T03:56:01;4.93;;;2.20;;
11064;SDS011;5585;52.530;7.320;2022-11-06T03:58:29;4.63;;;2.07;;
11064;SDS011;5585;52.530;7.320;2022-11-06T04:00:58;2.63;;;1.77;;
11064;SDS011;5585;52.530;7.320;2022-11-06T04:03:27;3.07;;;1.90;;
11064;SDS011;5585;52.530;7.320;2022-11-06T04:05:57;4.43;;;2.10;;
11064;SDS011;5585;52.530;7.320;2022-11-06T04:08:27;4.87;;;1.87;;
11064;SDS011;5585;52.530;7.320;2022-11-06T04:11:12;2.87;;;1.57;;
11064;SDS011;5585;52.530;7.320;2022-11-06T04:13:58;3.00;;;1.63;;
11064;SDS011;5585;52.530;7.320;2022-11-06T04:16:30;3.07;;;1.60;;
11064;SDS011;5585;52.530;7.320;2022-11-06T04:18:58;2.70;;;1.70;;
11064;SDS011;5585;52.530;7.320;2022-11-06T04:21:30;3.37;;;1.87;;
11064;SDS011;5585;52.530;7.320;2022-11-06T04:24:05;3.60;;;1.70;;
11064;SDS011;5585;52.530;7.320;2022-11-06T04:26:52;4.47;;;2.00;;
11064;SDS011;5585;52.530;7.320;2022-11-06T04:29:25;3.07;;;1.77;;
11064;SDS011;5585;52.530;7.320;2022-11-06T04:31:57;3.77;;;1.80;;
11064;SDS011;5585;52.530;7.320;2022-11-06T04:34:27;2.63;;;1.80;;
11064;SDS011;5585;52.530;7.320;2022-11-06T04:36:57;2.20;;;1.70;;
11064;SDS011;5585;52.530;7.320;2022-11-06T04:39:27;6.50;;;2.07;;
11064;SDS011;5585;52.530;7.320;2022-11-06T04:41:57;5.63;;;1.90;;
11064;SDS011;5585;52.530;7.320;2022-11-06T04:44:26;2.60;;;1.80;;
11064;SDS011;5585;52.530;7.320;2022-11-06T04:46:54;4.43;;;2.10;;
11064;SDS011;5585;52.530;7.320;2022-11-06T04:49:22;4.20;;;1.80;;
11064;SDS011;5585;52.530;7.320;2022-11-06T04:51:50;3.40;;;1.77;;
11064;SDS011;5585;52.530;7.320;2022-11-06T04:54:16;7.50;;;2.13;;
11064;SDS011;5585;52.530;7.320;2022-11-06T04:56:44;5.60;;;2.07;;
11064;SDS011;5585;52.530;7.320;2022-11-06T04:59:13;2.90;;;1.50;;
11064;SDS011;5585;52.530;7.320;2022-11-06T05:01:40;4.17;;;1.90;;
11064;SDS011;5585;52.530;7.320;2022-11-06T05:04:07;3.90;;;1.97;;
11064;SDS011;5585;52.530;7.320;2022-11-06T05:06:33;3.37;;;1.70;;
11064;SDS011;5585;52.530;7.320;2022-11-06T05:08:59;4.10;;;2.00;;
11064;SDS011;5585;52.530;7.320;2022-11-06T05:11:26;4.33;;;1.67;;
11064;SDS011;5585;52.530;7.320;2022-11-06T05:13:54;4.83;;;1.90;;
11064;SDS011;5585;52.530;7.320;2022-11-06T05:16:20;3.97;;;1.80;;
11064;SDS011;5585;52.530;7.320;2022-11-06T05:18:47;4.50;;;1.87;;
11064;SDS011;5585;52.530;7.320;2022-11-06T05:21:13;4.37;;;1.83;;
11064;SDS011;5585;52.530;7.320;2022-11-06T05:23:57;5.00;;;1.90;;
11064;SDS011;5585;52.530;7.320;2022-11-06T05:26:23;4.33;;;2.00;;
11064;SDS011;5585;52.530;7.320;2022-11-06T05:28:50;2.67;;;1.70;;
11064;SDS011;5585;52.530;7.320;2022-11-06T05:31:18;3.50;;;2.00;;
11064;SDS011;5585;52.530;7.320;2022-11-06T05:33:44;4.43;;;1.63;;
11064;SDS011;5585;52.530;7.320;2022-11-06T05:36:11;3.33;;;1.40;;
11064;SDS011;5585;52.530;7.320;2022-11-06T05:38:37;2.60;;;1.63;;
11064;SDS011;5585;52.530;7.320;2022-11-06T05:41:04;1.87;;;1.47;;
11064;SDS011;5585;52.530;7.320;2022-11-06T05:43:30;3.97;;;1.80;;
11064;SDS011;5585;52.530;7.320;2022-11-06T05:45:57;4.63;;;2.10;;
11064;SDS011;5585;52.530;7.320;2022-11-06T05:48:26;5.20;;;1.87;;
11064;SDS011;5585;52.530;7.320;2022-11-06T05:50:52;3.80;;;1.83;;
11064;SDS011;5585;52.530;7.320;2022-11-06T05:53:18;3.77;;;1.97;;
11064;SDS011;5585;52.530;7.320;2022-11-06T05:55:45;3.90;;;1.57;;
11064;SDS011;5585;52.530;7.320;2022-11-06T05:58:12;4.53;;;1.77;;
11064;SDS011;5585;52.530;7.320;2022-11-06T06:00:38;6.77;;;1.90;;
11064;SDS011;5585;52.530;7.320;2022-11-06T06:03:05;3.23;;;1.90;;
11064;SDS011;5585;52.530;7.320;2022-11-06T06:05:33;3.50;;;1.70;;
11064;SDS011;5585;52.530;7.320;2022-11-06T06:07:59;4.63;;;1.80;;
11064;SDS011;5585;52.530;7.320;2022-11-06T06:10:26;4.37;;;1.90;;
11064;SDS011;5585;52.530;7.320;2022-11-06T06:12:52;4.80;;;2.00;;
11064;SDS011;5585;52.530;7.320;2022-11-06T06:15:19;3.10;;;1.70;;
11064;SDS011;5585;52.530;7.320;2022-11-06T06:17:45;5.30;;;1.73;;
11064;SDS011;5585;52.530;7.320;2022-11-06T06:20:11;3.20;;;1.40;;
11064;SDS011;5585;52.530;7.320;2022-11-06T06:22:39;3.20;;;1.63;;
11064;SDS011;5585;52.530;7.320;2022-11-06T06:25:06;3.93;;;2.07;;
11064;SDS011;5585;52.530;7.320;2022-11-06T06:27:32;2.87;;;1.60;;
11064;SDS011;5585;52.530;7.320;2022-11-06T06:29:59;4.20;;;1.77;;
11064;SDS011;5585;52.530;7.320;2022-11-06T06:32:25;3.67;;;1.63;;
11064;SDS011;5585;52.530;7.320;2022-11-06T06:34:52;4.60;;;1.60;;
11064;SDS011;5585;52.530;7.320;2022-11-06T06:37:19;3.07;;;1.63;;
11064;SDS011;5585;52.530;7.320;2022-11-06T06:39:46;4.47;;;1.53;;
11064;SDS011;5585;52.530;7.320;2022-11-06T06:42:13;4.30;;;1.80;;
11064;SDS011;5585;52.530;7.320;2022-11-06T06:44:39;4.93;;;1.70;;
11064;SDS011;5585;52.530;7.320;2022-11-06T06:47:06;4.17;;;1.40;;
11064;SDS011;5585;52.530;7.320;2022-11-06T06:49:32;4.23;;;1.47;;
11064;SDS011;5585;52.530;7.320;2022-11-06T06:52:00;3.17;;;1.70;;
11064;SDS011;5585;52.530;7.320;2022-11-06T06:54:26;3.73;;;1.77;;
11064;SDS011;5585;52.530;7.320;2022-11-06T06:56:54;4.67;;;1.87;;
11064;SDS011;5585;52.530;7.320;2022-11-06T06:59:20;4.57;;;1.77;;
11064;SDS011;5585;52.530;7.320;2022-11-06T07:01:47;4.27;;;1.50;;
11064;SDS011;5585;52.530;7.320;2022-11-06T07:04:13;4.83;;;1.80;;
11064;SDS011;5585;52.530;7.320;2022-11-06T07:06:39;2.77;;;1.60;;
11064;SDS011;5585;52.530;7.320;2022-11-06T07:09:06;4.07;;;1.40;;
11064;SDS011;5585;52.530;7.320;2022-11-06T07:11:33;4.27;;;1.53;;
11064;SDS011;5585;52.530;7.320;2022-11-06T07:14:01;3.37;;;1.80;;
11064;SDS011;5585;52.530;7.320;2022-11-06T07:16:27;5.13;;;1.70;;
11064;SDS011;5585;52.530;7.320;2022-11-06T07:18:56;3.90;;;1.50;;
11064;SDS011;5585;52.530;7.320;2022-11-06T07:21:23;5.17;;;1.43;;
11064;SDS011;5585;52.530;7.320;2022-11-06T07:23:49;2.67;;;1.33;;
11064;SDS011;5585;52.530;7.320;2022-11-06T07:26:16;3.70;;;1.43;;
11064;SDS011;5585;52.530;7.320;2022-11-06T07:28:42;1.93;;;1.50;;
11064;SDS011;5585;52.530;7.320;2022-11-06T07:31:10;4.13;;;1.70;;
11064;SDS011;5585;52.530;7.320;2022-11-06T07:33:37;5.53;;;1.67;;
11064;SDS011;5585;52.530;7.320;2022-11-06T07:36:05;6.77;;;2.20;;
11064;SDS011;5585;52.530;7.320;2022-11-06T07:38:32;4.93;;;1.40;;
11064;SDS011;5585;52.530;7.320;2022-11-06T07:41:02;6.17;;;1.60;;
11064;SDS011;5585;52.530;7.320;2022-11-06T07:43:29;3.90;;;1.70;;
11064;SDS011;5585;52.530;7.320;2022-11-06T07:45:57;2.77;;;1.50;;
11064;SDS011;5585;52.530;7.320;2022-11-06T07:48:25;4.07;;;1.40;;
11064;SDS011;5585;52.530;7.320;2022-11-06T07:50:51;3.37;;;1.50;;
11064;SDS011;5585;52.530;7.320;2022-11-06T07:53:18;6.20;;;1.50;;
11064;SDS011;5585;52.530;7.320;2022-11-06T07:55:47;3.03;;;1.30;;
11064;SDS011;5585;52.530;7.320;2022-11-06T07:58:14;2.93;;;1.27;;
11064;SDS011;5585;52.530;7.320;2022-11-06T08:00:44;2.47;;;1.10;;
11064;SDS011;5585;52.530;7.320;2022-11-06T08:03:10;4.90;;;1.37;;
11064;SDS011;5585;52.530;7.320;2022-11-06T08:05:38;5.97;;;1.43;;
11064;SDS011;5585;52.530;7.320;2022-11-06T08:08:05;4.63;;;1.80;;
11064;SDS011;5585;52.530;7.320;2022-11-06T08:10:31;3.50;;;1.27;;
11064;SDS011;5585;52.530;7.320;2022-11-06T08:12:58;3.73;;;1.33;;
11064;SDS011;5585;52.530;7.320;2022-11-06T08:15:24;3.17;;;1.17;;
11064;SDS011;5585;52.530;7.320;2022-11-06T08:17:51;3.07;;;1.37;;
11064;SDS011;5585;52.530;7.320;2022-11-06T08:20:17;3.97;;;1.30;;
11064;SDS011;5585;52.530;7.320;2022-11-06T08:22:45;4.87;;;1.60;;
11064;SDS011;5585;52.530;7.320;2022-11-06T08:25:11;4.10;;;1.13;;
11064;SDS011;5585;52.530;7.320;2022-11-06T08:27:38;5.57;;;1.60;;
11064;SDS011;5585;52.530;7.320;2022-11-06T08:30:05;5.17;;;1.63;;
11064;SDS011;5585;52.530;7.320;2022-11-06T08:32:31;3.40;;;1.53;;
11064;SDS011;5585;52.530;7.320;2022-11-06T08:34:58;3.20;;;1.40;;
11064;SDS011;5585;52.530;7.320;2022-11-06T08:37:24;3.43;;;1.30;;
11064;SDS011;5585;52.530;7.320;2022-11-06T08:39:52;5.93;;;1.60;;
11064;SDS011;5585;52.530;7.320;2022-11-06T08:42:18;3.90;;;1.93;;
11064;SDS011;5585;52.530;7.320;2022-11-06T08:44:45;4.67;;;1.50;;
11064;SDS011;5585;52.530;7.320;2022-11-06T08:47:11;3.23;;;1.37;;
11064;SDS011;5585;52.530;7.320;2022-11-06T08:49:38;2.27;;;1.10;;
11064;SDS011;5585;52.530;7.320;2022-11-06T08:52:04;3.10;;;1.30;;
11064;SDS011;5585;52.530;7.320;2022-11-06T08:54:30;2.40;;;0.97;;
11064;SDS011;5585;52.530;7.320;2022-11-06T08:56:58;2.93;;;1.10;;
11064;SDS011;5585;52.530;7.320;2022-11-06T08:59:26;2.20;;;1.00;;
11064;SDS011;5585;52.530;7.320;2022-11-06T09:01:52;4.83;;;1.27;;
11064;SDS011;5585;52.530;7.320;2022-11-06T09:04:20;2.73;;;1.20;;
11064;SDS011;5585;52.530;7.320;2022-11-06T09:06:46;3.60;;;1.57;;
11064;SDS011;5585;52.530;7.320;2022-11-06T09:09:13;4.00;;;1.30;;
11064;SDS011;5585;52.530;7.320;2022-11-06T09:11:39;3.73;;;1.27;;
11064;SDS011;5585;52.530;7.320;2022-11-06T09:14:07;4.40;;;1.20;;
11064;SDS011;5585;52.530;7.320;2022-11-06T09:16:34;2.57;;;1.00;;
11064;SDS011;5585;52.530;7.320;2022-11-06T09:19:00;2.60;;;1.10;;
11064;SDS011;5585;52.530;7.320;2022-11-06T09:21:27;2.80;;;1.20;;
11064;SDS011;5585;52.530;7.320;2022-11-06T09:23:53;1.77;;;1.23;;
11064;SDS011;5585;52.530;7.320;2022-11-06T09:26:19;4.23;;;1.40;;
11064;SDS011;5585;52.530;7.320;2022-11-06T09:28:46;2.80;;;1.10;;
11064;SDS011;5585;52.530;7.320;2022-11-06T09:31:14;2.27;;;1.03;;
11064;SDS011;5585;52.530;7.320;2022-11-06T09:33:40;2.80;;;1.10;;
11064;SDS011;5585;52.530;7.320;2022-11-06T09:36:07;3.00;;;1.10;;
11064;SDS011;5585;52.530;7.320;2022-11-06T09:38:34;5.40;;;1.40;;
11064;SDS011;5585;52.530;7.320;2022-11-06T09:41:01;2.77;;;1.30;;
11064;SDS011;5585;52.530;7.320;2022-11-06T09:43:30;2.63;;;1.13;;
11064;SDS011;5585;52.530;7.320;2022-11-06T09:45:59;2.20;;;1.20;;
11064;SDS011;5585;52.530;7.320;2022-11-06T09:48:31;3.90;;;1.20;;
11064;SDS011;5585;52.530;7.320;2022-11-06T09:51:00;2.23;;;1.00;;
11064;SDS011;5585;52.530;7.320;2022-11-06T09:53:29;2.10;;;1.20;;
11064;SDS011;5585;52.530;7.320;2022-11-06T09:55:57;3.53;;;1.30;;
11064;SDS011;5585;52.530;7.320;2022-11-06T09:58:27;3.50;;;1.20;;
11064;SDS011;5585;52.530;7.320;2022-11-06T10:00:56;5.47;;;1.20;;
11064;SDS011;5585;52.530;7.320;2022-11-06T10:03:25;4.97;;;1.30;;
11064;SDS011;5585;52.530;7.320;2022-11-06T10:05:56;4.90;;;1.30;;
11064;SDS011;5585;52.530;7.320;2022-11-06T10:08:22;2.80;;;1.20;;
11064;SDS011;5585;52.530;7.320;2022-11-06T10:10:55;4.40;;;1.30;;
11064;SDS011;5585;52.530;7.320;2022-11-06T10:13:34;2.80;;;1.00;;
11064;SDS011;5585;52.530;7.320;2022-11-06T10:16:05;3.13;;;1.30;;
11064;SDS011;5585;52.530;7.320;2022-11-06T10:18:37;3.67;;;1.20;;
11064;SDS011;5585;52.530;7.320;2022-11-06T10:21:08;1.33;;;0.93;;
11064;SDS011;5585;52.530;7.320;2022-11-06T10:23:37;4.30;;;1.30;;
11064;SDS011;5585;52.530;7.320;2022-11-06T10:26:08;4.60;;;1.30;;
11064;SDS011;5585;52.530;7.320;2022-11-06T10:28:43;2.23;;;1.00;;
11064;SDS011;5585;52.530;7.320;2022-11-06T10:31:14;4.60;;;1.23;;
11064;SDS011;5585;52.530;7.320;2022-11-06T10:33:46;4.80;;;1.30;;
11064;SDS011;5585;52.530;7.320;2022-11-06T10:36:16;1.97;;;0.97;;
11064;SDS011;5585;52.530;7.320;2022-11-06T10:38:43;3.43;;;1.20;;
11064;SDS011;5585;52.530;7.320;2022-11-06T10:41:13;1.20;;;0.77;;
11064;SDS011;5585;52.530;7.320;2022-11-06T10:43:41;5.53;;;1.10;;
11064;SDS011;5585;52.530;7.320;2022-11-06T10:46:11;2.10;;;0.90;;
11064;SDS011;5585;52.530;7.320;2022-11-06T10:48:42;3.33;;;1.30;;
11064;SDS011;5585;52.530;7.320;2022-11-06T10:51:18;4.30;;;1.33;;
11064;SDS011;5585;52.530;7.320;2022-11-06T10:53:49;3.77;;;1.50;;
11064;SDS011;5585;52.530;7.320;2022-11-06T10:56:31;2.43;;;1.40;;
11064;SDS011;5585;52.530;7.320;2022-11-06T10:59:01;2.55;;;1.20;;
11064;SDS011;5585;52.530;7.320;2022-11-06T11:01:27;2.43;;;1.17;;
11064;SDS011;5585;52.530;7.320;2022-11-06T11:03:54;2.95;;;1.20;;
11064;SDS011;5585;52.530;7.320;2022-11-06T11:06:22;3.15;;;0.98;;
11064;SDS011;5585;52.530;7.320;2022-11-06T11:08:49;2.85;;;1.00;;
11064;SDS011;5585;52.530;7.320;2022-11-06T11:11:19;3.70;;;1.00;;
11064;SDS011;5585;52.530;7.320;2022-11-06T11:13:48;4.00;;;1.05;;
11064;SDS011;5585;52.530;7.320;2022-11-06T11:16:15;2.75;;;1.02;;
11064;SDS011;5585;52.530;7.320;2022-11-06T11:18:42;3.22;;;1.10;;
11064;SDS011;5585;52.530;7.320;2022-11-06T11:21:14;2.83;;;1.00;;
11064;SDS011;5585;52.530;7.320;2022-11-06T11:23:42;1.63;;;0.80;;
11064;SDS011;5585;52.530;7.320;2022-11-06T11:26:17;2.65;;;1.00;;
11064;SDS011;5585;52.530;7.320;2022-11-06T11:28:47;3.03;;;1.23;;
11064;SDS011;5585;52.530;7.320;2022-11-06T11:31:15;3.25;;;1.02;;
11064;SDS011;5585;52.530;7.320;2022-11-06T11:33:46;3.40;;;1.10;;
11064;SDS011;5585;52.530;7.320;2022-11-06T11:36:14;2.20;;;0.80;;
11064;SDS011;5585;52.530;7.320;2022-11-06T11:38:42;2.60;;;1.05;;
11064;SDS011;5585;52.530;7.320;2022-11-06T11:41:11;3.60;;;1.05;;
11064;SDS011;5585;52.530;7.320;2022-11-06T11:43:37;6.40;;;2.97;;
11064;SDS011;5585;52.530;7.320;2022-11-06T11:46:13;3.75;;;2.17;;
11064;SDS011;5585;52.530;7.320;2022-11-06T11:48:41;4.85;;;1.10;;
11064;SDS011;5585;52.530;7.320;2022-11-06T11:51:11;3.20;;;0.98;;
11064;SDS011;5585;52.530;7.320;2022-11-06T11:53:40;2.58;;;1.05;;
11064;SDS011;5585;52.530;7.320;2022-11-06T11:56:07;2.60;;;0.93;;
11064;SDS011;5585;52.530;7.320;2022-11-06T11:58:38;2.97;;;1.15;;
11064;SDS011;5585;52.530;7.320;2022-11-06T12:01:05;2.72;;;1.10;;
11064;SDS011;5585;52.530;7.320;2022-11-06T12:03:33;1.30;;;0.85;;
11064;SDS011;5585;52.530;7.320;2022-11-06T12:06:04;2.25;;;0.90;;
11064;SDS011;5585;52.530;7.320;2022-11-06T12:08:32;2.97;;;1.00;;
11064;SDS011;5585;52.530;7.320;2022-11-06T12:11:00;3.10;;;1.27;;
11064;SDS011;5585;52.530;7.320;2022-11-06T12:13:29;2.50;;;0.90;;
11064;SDS011;5585;52.530;7.320;2022-11-06T12:15:56;5.47;;;1.27;;
11064;SDS011;5585;52.530;7.320;2022-11-06T12:18:25;3.28;;;1.20;;
11064;SDS011;5585;52.530;7.320;2022-11-06T12:20:53;3.40;;;1.00;;
11064;SDS011;5585;52.530;7.320;2022-11-06T12:23:23;3.10;;;1.30;;
11064;SDS011;5585;52.530;7.320;2022-11-06T12:25:55;3.47;;;1.08;;
11064;SDS011;5585;52.530;7.320;2022-11-06T12:28:23;2.83;;;1.42;;
11064;SDS011;5585;52.530;7.320;2022-11-06T12:30:56;2.47;;;1.02;;
11064;SDS011;5585;52.530;7.320;2022-11-06T12:33:25;1.23;;;0.73;;
11064;SDS011;5585;52.530;7.320;2022-11-06T12:35:54;3.83;;;1.13;;
11064;SDS011;5585;52.530;7.320;2022-11-06T12:38:25;3.90;;;1.10;;
11064;SDS011;5585;52.530;7.320;2022-11-06T12:40:56;3.00;;;1.40;;
11064;SDS011;5585;52.530;7.320;2022-11-06T12:43:26;2.33;;;0.93;;
11064;SDS011;5585;52.530;7.320;2022-11-06T12:45:58;2.08;;;1.08;;
11064;SDS011;5585;52.530;7.320;2022-11-06T12:48:34;3.05;;;0.98;;
11064;SDS011;5585;52.530;7.320;2022-11-06T12:51:03;2.90;;;1.20;;
11064;SDS011;5585;52.530;7.320;2022-11-06T12:53:34;4.28;;;1.05;;
11064;SDS011;5585;52.530;7.320;2022-11-06T12:56:06;3.22;;;1.00;;
11064;SDS011;5585;52.530;7.320;2022-11-06T12:58:42;3.33;;;1.25;;
11064;SDS011;5585;52.530;7.320;2022-11-06T13:01:14;2.97;;;1.10;;
11064;SDS011;5585;52.530;7.320;2022-11-06T13:03:55;3.92;;;1.27;;
11064;SDS011;5585;52.530;7.320;2022-11-06T13:06:29;2.92;;;1.10;;
11064;SDS011;5585;52.530;7.320;2022-11-06T13:09:02;3.55;;;1.02;;
11064;SDS011;5585;52.530;7.320;2022-11-06T13:11:33;4.22;;;1.40;;
11064;SDS011;5585;52.530;7.320;2022-11-06T13:14:04;1.55;;;1.00;;
11064;SDS011;5585;52.530;7.320;2022-11-06T13:16:39;2.72;;;1.20;;
11064;SDS011;5585;52.530;7.320;2022-11-06T13:19:08;3.00;;;1.27;;
11064;SDS011;5585;52.530;7.320;2022-11-06T13:21:49;2.10;;;1.23;;
11064;SDS011;5585;52.530;7.320;2022-11-06T13:24:20;2.25;;;1.00;;
11064;SDS011;5585;52.530;7.320;2022-11-06T13:26:51;2.85;;;1.00;;
11064;SDS011;5585;52.530;7.320;2022-11-06T13:29:19;4.40;;;1.20;;
11064;SDS011;5585;52.530;7.320;2022-11-06T13:31:50;3.20;;;1.02;;
11064;SDS011;5585;52.530;7.320;2022-11-06T13:34:18;3.40;;;1.38;;
11064;SDS011;5585;52.530;7.320;2022-11-06T13:36:46;2.80;;;1.20;;
11064;SDS011;5585;52.530;7.320;2022-11-06T13:39:14;5.45;;;1.27;;
11064;SDS011;5585;52.530;7.320;2022-11-06T13:41:43;2.10;;;1.10;;
11064;SDS011;5585;52.530;7.320;2022-11-06T13:44:10;2.63;;;1.10;;
11064;SDS011;5585;52.530;7.320;2022-11-06T13:46:41;2.42;;;1.30;;
11064;SDS011;5585;52.530;7.320;2022-11-06T13:49:17;2.53;;;1.13;;
11064;SDS011;5585;52.530;7.320;2022-11-06T13:51:49;2.17;;;1.50;;
11064;SDS011;5585;52.530;7.320;2022-11-06T13:54:18;2.50;;;1.30;;
11064;SDS011;5585;52.530;7.320;2022-11-06T13:59:34;2.47;;;1.40;;
11064;SDS011;5585;52.530;7.320;2022-11-06T14:02:10;3.97;;;1.43;;
11064;SDS011;5585;52.530;7.320;2022-11-06T14:04:55;3.40;;;1.50;;
11064;SDS011;5585;52.530;7.320;2022-11-06T14:07:33;2.63;;;1.20;;
11064;SDS011;5585;52.530;7.320;2022-11-06T14:10:00;4.80;;;1.60;;
11064;SDS011;5585;52.530;7.320;2022-11-06T14:12:27;3.63;;;1.30;;
11064;SDS011;5585;52.530;7.320;2022-11-06T14:15:12;2.75;;;1.48;;
11064;SDS011;5585;52.530;7.320;2022-11-06T14:17:39;4.20;;;1.33;;
11064;SDS011;5585;52.530;7.320;2022-11-06T14:20:28;2.45;;;1.17;;
11064;SDS011;5585;52.530;7.320;2022-11-06T14:22:54;2.33;;;1.40;;
11064;SDS011;5585;52.530;7.320;2022-11-06T14:28:07;2.38;;;1.23;;
11064;SDS011;5585;52.530;7.320;2022-11-06T14:30:38;3.42;;;1.30;;
11064;SDS011;5585;52.530;7.320;2022-11-06T14:33:10;3.77;;;1.67;;
11064;SDS011;5585;52.530;7.320;2022-11-06T14:35:49;3.00;;;1.73;;
11064;SDS011;5585;52.530;7.320;2022-11-06T14:40:57;6.77;;;2.20;;
11064;SDS011;5585;52.530;7.320;2022-11-06T14:43:25;4.93;;;2.50;;
11064;SDS011;5585;52.530;7.320;2022-11-06T14:45:54;5.93;;;2.33;;
11064;SDS011;5585;52.530;7.320;2022-11-06T14:48:28;4.87;;;2.00;;
11064;SDS011;5585;52.530;7.320;2022-11-06T14:50:57;5.88;;;2.90;;
11064;SDS011;5585;52.530;7.320;2022-11-06T14:53:25;5.17;;;1.70;;
11064;SDS011;5585;52.530;7.320;2022-11-06T14:55:57;2.87;;;1.10;;
11064;SDS011;5585;52.530;7.320;2022-11-06T14:58:24;1.70;;;1.30;;
11064;SDS011;5585;52.530;7.320;2022-11-06T15:00:52;2.47;;;1.27;;
11064;SDS011;5585;52.530;7.320;2022-11-06T15:03:21;2.37;;;1.10;;
11064;SDS011;5585;52.530;7.320;2022-11-06T15:05:49;3.50;;;1.57;;
11064;SDS011;5585;52.530;7.320;2022-11-06T15:10:59;2.43;;;1.23;;
11064;SDS011;5585;52.530;7.320;2022-11-06T15:13:28;4.03;;;1.50;;
11064;SDS011;5585;52.530;7.320;2022-11-06T15:16:00;2.33;;;1.47;;
11064;SDS011;5585;52.530;7.320;2022-11-06T15:18:28;1.90;;;1.30;;
11064;SDS011;5585;52.530;7.320;2022-11-06T15:20:57;3.30;;;1.57;;
11064;SDS011;5585;52.530;7.320;2022-11-06T15:23:25;2.40;;;1.33;;